sensor_id;sensor_type;location;lat;lon;timestamp;pressure;altitude;pressure_sealevel;temperature;humidity
55317;BME280;41178;48.956;8.130;2022-12-29T00:02:59;99046.03;;;12.97;43.89
55317;BME280;41178;48.956;8.130;2022-12-29T00:08:01;99040.88;;;12.96;43.63
55317;BME280;41178;48.956;8.130;2022-12-29T00:13:02;99065.72;;;12.00;44.79
55317;BME280;41178;48.956;8.130;2022-12-29T00:18:23;99076.91;;;13.13;43.89
55317;BME280;41178;48.956;8.130;2022-12-29T00:23:24;99044.69;;;13.38;43.15
55317;BME280;41178;48.956;8.130;2022-12-29T00:28:44;99073.78;;;12.52;44.33
55317;BME280;41178;48.956;8.130;2022-12-29T00:34:08;99091.13;;;12.50;45.28
55317;BME280;41178;48.956;8.130;2022-12-29T00:39:30;99044.91;;;13.37;44.22
55317;BME280;41178;48.956;8.130;2022-12-29T00:44:50;99034.97;;;14.18;43.68
55317;BME280;41178;48.956;8.130;2022-12-29T00:49:52;99043.59;;;13.46;44.50
55317;BME280;41178;48.956;8.130;2022-12-29T00:54:53;99061.22;;;13.10;45.64
55317;BME280;41178;48.956;8.130;2022-12-29T00:59:55;99040.59;;;13.04;46.07
55317;BME280;41178;48.956;8.130;2022-12-29T01:04:56;99066.31;;;12.61;46.59
55317;BME280;41178;48.956;8.130;2022-12-29T01:09:58;99050.16;;;13.25;45.90
55317;BME280;41178;48.956;8.130;2022-12-29T01:15:13;99052.25;;;13.23;45.88
55317;BME280;41178;48.956;8.130;2022-12-29T01:20:15;99001.25;;;14.15;44.34
55317;BME280;41178;48.956;8.130;2022-12-29T01:25:18;99029.47;;;13.32;45.18
55317;BME280;41178;48.956;8.130;2022-12-29T01:30:20;98996.75;;;14.28;44.90
55317;BME280;41178;48.956;8.130;2022-12-29T01:35:21;99034.53;;;13.15;46.24
55317;BME280;41178;48.956;8.130;2022-12-29T01:40:23;99032.91;;;13.39;45.65
55317;BME280;41178;48.956;8.130;2022-12-29T01:45:25;99003.63;;;13.50;45.81
55317;BME280;41178;48.956;8.130;2022-12-29T01:50:32;98965.69;;;14.13;45.05
55317;BME280;41178;48.956;8.130;2022-12-29T01:55:41;99029.16;;;12.90;46.24
55317;BME280;41178;48.956;8.130;2022-12-29T02:00:44;99002.94;;;13.10;46.06
55317;BME280;41178;48.956;8.130;2022-12-29T02:06:12;98983.56;;;13.34;45.75
55317;BME280;41178;48.956;8.130;2022-12-29T02:11:19;99010.53;;;12.95;46.56
55317;BME280;41178;48.956;8.130;2022-12-29T02:39:04;98964.16;;;12.81;46.84
55317;BME280;41178;48.956;8.130;2022-12-29T02:49:57;98951.25;;;13.15;46.86
55317;BME280;41178;48.956;8.130;2022-12-29T02:55:02;98950.00;;;12.04;47.57
55317;BME280;41178;48.956;8.130;2022-12-29T03:16:29;98939.84;;;13.01;46.89
55317;BME280;41178;48.956;8.130;2022-12-29T03:21:09;98930.28;;;13.05;47.27
55317;BME280;41178;48.956;8.130;2022-12-29T03:26:14;98973.53;;;12.40;46.87
55317;BME280;41178;48.956;8.130;2022-12-29T03:31:17;98924.25;;;13.84;45.65
55317;BME280;41178;48.956;8.130;2022-12-29T03:36:27;98948.38;;;12.66;46.63
55317;BME280;41178;48.956;8.130;2022-12-29T03:41:33;98928.81;;;11.95;47.34
55317;BME280;41178;48.956;8.130;2022-12-29T03:46:35;98909.53;;;12.44;47.20
55317;BME280;41178;48.956;8.130;2022-12-29T03:51:37;98929.72;;;12.14;47.85
55317;BME280;41178;48.956;8.130;2022-12-29T03:56:39;98917.66;;;12.87;46.62
55317;BME280;41178;48.956;8.130;2022-12-29T04:01:40;98909.09;;;11.04;48.11
55317;BME280;41178;48.956;8.130;2022-12-29T04:06:42;98940.53;;;12.90;45.59
55317;BME280;41178;48.956;8.130;2022-12-29T04:11:44;98896.69;;;11.23;47.19
55317;BME280;41178;48.956;8.130;2022-12-29T04:16:45;98938.81;;;12.45;46.76
55317;BME280;41178;48.956;8.130;2022-12-29T04:21:47;98901.09;;;12.90;46.12
55317;BME280;41178;48.956;8.130;2022-12-29T04:26:49;98939.84;;;12.51;46.16
55317;BME280;41178;48.956;8.130;2022-12-29T04:31:50;98906.25;;;12.67;45.87
55317;BME280;41178;48.956;8.130;2022-12-29T04:36:52;98896.50;;;13.16;46.17
55317;BME280;41178;48.956;8.130;2022-12-29T04:41:54;98894.91;;;10.97;48.63
55317;BME280;41178;48.956;8.130;2022-12-29T04:46:55;98936.56;;;12.10;47.78
55317;BME280;41178;48.956;8.130;2022-12-29T04:51:57;98929.44;;;11.39;48.93
55317;BME280;41178;48.956;8.130;2022-12-29T04:56:59;98933.78;;;11.92;47.77
55317;BME280;41178;48.956;8.130;2022-12-29T05:05:19;98953.31;;;8.80;53.80
55317;BME280;41178;48.956;8.130;2022-12-29T05:10:21;98879.59;;;9.84;52.57
55317;BME280;41178;48.956;8.130;2022-12-29T05:15:23;98874.28;;;9.91;52.37
55317;BME280;41178;48.956;8.130;2022-12-29T05:20:24;98918.34;;;9.67;52.24
55317;BME280;41178;48.956;8.130;2022-12-29T05:25:26;98912.13;;;10.01;51.81
55317;BME280;41178;48.956;8.130;2022-12-29T05:30:28;98930.72;;;9.74;51.62
55317;BME280;41178;48.956;8.130;2022-12-29T05:35:29;98903.53;;;10.19;51.08
55317;BME280;41178;48.956;8.130;2022-12-29T05:40:31;98894.09;;;10.43;50.81
55317;BME280;41178;48.956;8.130;2022-12-29T05:45:33;98908.47;;;10.29;50.76
55317;BME280;41178;48.956;8.130;2022-12-29T05:50:35;98922.19;;;9.92;51.21
55317;BME280;41178;48.956;8.130;2022-12-29T05:55:36;98913.25;;;9.78;51.95
55317;BME280;41178;48.956;8.130;2022-12-29T06:00:43;98873.69;;;10.22;51.55
55317;BME280;41178;48.956;8.130;2022-12-29T06:05:46;98885.84;;;10.18;51.17
55317;BME280;41178;48.956;8.130;2022-12-29T06:10:47;98856.44;;;10.51;50.99
55317;BME280;41178;48.956;8.130;2022-12-29T06:15:50;98846.97;;;10.82;50.22
55317;BME280;41178;48.956;8.130;2022-12-29T06:20:51;98873.50;;;10.50;50.53
55317;BME280;41178;48.956;8.130;2022-12-29T06:25:53;98849.03;;;10.47;50.78
55317;BME280;41178;48.956;8.130;2022-12-29T06:30:55;98841.19;;;10.65;50.57
55317;BME280;41178;48.956;8.130;2022-12-29T06:35:56;98827.78;;;11.51;48.97
55317;BME280;41178;48.956;8.130;2022-12-29T06:40:58;98902.69;;;10.19;50.02
55317;BME280;41178;48.956;8.130;2022-12-29T06:46:00;98885.88;;;10.78;49.33
55317;BME280;41178;48.956;8.130;2022-12-29T06:51:02;98867.63;;;11.27;48.02
55317;BME280;41178;48.956;8.130;2022-12-29T06:56:04;98876.06;;;11.37;48.16
55317;BME280;41178;48.956;8.130;2022-12-29T07:01:06;98948.63;;;9.81;51.20
55317;BME280;41178;48.956;8.130;2022-12-29T07:06:07;98904.38;;;10.66;49.65
55317;BME280;41178;48.956;8.130;2022-12-29T07:11:09;98923.31;;;10.98;49.37
55317;BME280;41178;48.956;8.130;2022-12-29T07:16:11;98912.53;;;11.32;48.23
55317;BME280;41178;48.956;8.130;2022-12-29T07:21:13;98907.09;;;11.65;47.75
55317;BME280;41178;48.956;8.130;2022-12-29T07:26:15;98945.97;;;10.82;48.68
55317;BME280;41178;48.956;8.130;2022-12-29T07:31:22;98897.56;;;11.69;48.04
55317;BME280;41178;48.956;8.130;2022-12-29T07:36:24;98919.97;;;12.27;47.05
55317;BME280;41178;48.956;8.130;2022-12-29T07:41:32;98931.28;;;11.25;48.55
55317;BME280;41178;48.956;8.130;2022-12-29T07:46:34;98952.28;;;11.35;48.24
55317;BME280;41178;48.956;8.130;2022-12-29T07:51:55;98970.69;;;10.91;48.52
55317;BME280;41178;48.956;8.130;2022-12-29T07:56:57;98977.69;;;10.99;48.78
55317;BME280;41178;48.956;8.130;2022-12-29T08:02:01;98950.16;;;11.70;47.46
55317;BME280;41178;48.956;8.130;2022-12-29T08:07:03;98963.00;;;11.28;48.26
55317;BME280;41178;48.956;8.130;2022-12-29T08:12:05;98967.91;;;11.65;47.40
55317;BME280;41178;48.956;8.130;2022-12-29T08:17:07;98972.16;;;11.86;46.96
55317;BME280;41178;48.956;8.130;2022-12-29T08:22:08;98980.22;;;11.79;47.21
55317;BME280;41178;48.956;8.130;2022-12-29T08:27:10;99029.97;;;11.01;47.50
55317;BME280;41178;48.956;8.130;2022-12-29T08:32:20;99038.00;;;11.35;47.82
55317;BME280;41178;48.956;8.130;2022-12-29T08:37:22;99065.34;;;10.70;48.94
55317;BME280;41178;48.956;8.130;2022-12-29T08:42:31;99016.72;;;11.60;47.40
55317;BME280;41178;48.956;8.130;2022-12-29T08:47:33;99069.94;;;11.16;48.27
55317;BME280;41178;48.956;8.130;2022-12-29T08:52:35;99031.41;;;11.51;47.95
55317;BME280;41178;48.956;8.130;2022-12-29T08:57:36;98998.44;;;12.09;46.62
55317;BME280;41178;48.956;8.130;2022-12-29T09:02:38;99020.09;;;12.14;46.66
55317;BME280;41178;48.956;8.130;2022-12-29T09:07:40;99022.59;;;12.54;46.80
55317;BME280;41178;48.956;8.130;2022-12-29T09:12:42;99033.28;;;12.61;46.97
55317;BME280;41178;48.956;8.130;2022-12-29T09:17:43;99056.16;;;12.18;47.72
55317;BME280;41178;48.956;8.130;2022-12-29T09:22:48;99059.19;;;12.73;46.67
55317;BME280;41178;48.956;8.130;2022-12-29T09:27:51;99050.22;;;13.18;47.00
55317;BME280;41178;48.956;8.130;2022-12-29T09:32:56;99050.09;;;13.06;46.70
55317;BME280;41178;48.956;8.130;2022-12-29T09:37:58;99077.09;;;12.54;47.47
55317;BME280;41178;48.956;8.130;2022-12-29T09:43:09;99058.94;;;13.39;46.46
55317;BME280;41178;48.956;8.130;2022-12-29T09:48:21;99061.38;;;12.90;47.42
55317;BME280;41178;48.956;8.130;2022-12-29T09:53:36;99067.59;;;13.41;46.67
55317;BME280;41178;48.956;8.130;2022-12-29T09:58:47;99068.72;;;13.58;48.05
55317;BME280;41178;48.956;8.130;2022-12-29T10:03:55;99058.03;;;12.95;49.26
55317;BME280;41178;48.956;8.130;2022-12-29T10:25:19;99046.56;;;13.56;47.58
55317;BME280;41178;48.956;8.130;2022-12-29T10:30:22;99038.66;;;13.43;47.79
55317;BME280;41178;48.956;8.130;2022-12-29T10:35:32;99049.13;;;13.70;47.32
55317;BME280;41178;48.956;8.130;2022-12-29T10:40:40;99045.22;;;13.22;48.10
55317;BME280;41178;48.956;8.130;2022-12-29T10:45:44;99088.94;;;12.27;48.97
55317;BME280;41178;48.956;8.130;2022-12-29T10:50:47;99077.91;;;11.96;48.87
55317;BME280;41178;48.956;8.130;2022-12-29T10:55:49;99063.06;;;12.52;47.10
55317;BME280;41178;48.956;8.130;2022-12-29T11:06:24;99117.69;;;9.96;52.41
55317;BME280;41178;48.956;8.130;2022-12-29T11:11:32;99113.47;;;10.57;51.26
55317;BME280;41178;48.956;8.130;2022-12-29T11:16:34;99056.72;;;11.55;50.14
55317;BME280;41178;48.956;8.130;2022-12-29T11:21:38;99042.59;;;12.06;48.83
55317;BME280;41178;48.956;8.130;2022-12-29T11:26:44;99053.66;;;12.23;48.48
55317;BME280;41178;48.956;8.130;2022-12-29T11:31:51;99063.06;;;12.52;48.25
55317;BME280;41178;48.956;8.130;2022-12-29T11:37:00;99074.75;;;12.13;48.59
55317;BME280;41178;48.956;8.130;2022-12-29T11:42:06;99065.56;;;12.41;48.24
55317;BME280;41178;48.956;8.130;2022-12-29T11:47:22;99083.06;;;11.98;48.73
55317;BME280;41178;48.956;8.130;2022-12-29T11:52:27;99098.78;;;11.41;49.18
55317;BME280;41178;48.956;8.130;2022-12-29T11:57:32;99059.34;;;12.47;48.14
55317;BME280;41178;48.956;8.130;2022-12-29T12:02:45;99084.78;;;11.32;49.70
55317;BME280;41178;48.956;8.130;2022-12-29T12:07:57;99061.84;;;12.35;48.69
55317;BME280;41178;48.956;8.130;2022-12-29T12:13:08;99052.03;;;12.99;48.29
55317;BME280;41178;48.956;8.130;2022-12-29T12:33:52;99046.28;;;12.18;49.63
55317;BME280;41178;48.956;8.130;2022-12-29T12:44:20;99070.34;;;11.73;50.35
55317;BME280;41178;48.956;8.130;2022-12-29T12:54:52;99049.59;;;12.14;50.53
55317;BME280;41178;48.956;8.130;2022-12-29T13:05:26;99028.78;;;13.37;48.65
55317;BME280;41178;48.956;8.130;2022-12-29T13:10:32;99021.03;;;13.28;48.88
55317;BME280;41178;48.956;8.130;2022-12-29T13:15:50;99046.97;;;11.94;50.90
55317;BME280;41178;48.956;8.130;2022-12-29T13:26:23;99025.97;;;11.84;52.06
55317;BME280;41178;48.956;8.130;2022-12-29T13:31:50;99062.94;;;11.09;54.26
55317;BME280;41178;48.956;8.130;2022-12-29T13:36:58;99063.78;;;11.16;54.12
55317;BME280;41178;48.956;8.130;2022-12-29T13:42:02;99005.81;;;11.61;53.55
55317;BME280;41178;48.956;8.130;2022-12-29T13:47:40;99060.03;;;10.22;56.97
55317;BME280;41178;48.956;8.130;2022-12-29T13:58:15;99054.97;;;10.47;57.50
55317;BME280;41178;48.956;8.130;2022-12-29T14:08:43;99072.44;;;9.88;57.67
55317;BME280;41178;48.956;8.130;2022-12-29T14:13:47;99085.97;;;9.86;58.00
55317;BME280;41178;48.956;8.130;2022-12-29T14:18:50;99080.91;;;10.46;56.84
55317;BME280;41178;48.956;8.130;2022-12-29T14:23:51;99090.28;;;10.29;57.67
55317;BME280;41178;48.956;8.130;2022-12-29T14:28:55;99064.19;;;10.38;57.78
55317;BME280;41178;48.956;8.130;2022-12-29T14:39:30;99071.75;;;10.76;56.29
55317;BME280;41178;48.956;8.130;2022-12-29T14:44:33;99096.66;;;10.21;56.75
55317;BME280;41178;48.956;8.130;2022-12-29T14:49:42;99105.81;;;10.47;56.44
55317;BME280;41178;48.956;8.130;2022-12-29T14:54:51;99076.09;;;11.70;54.58
55317;BME280;41178;48.956;8.130;2022-12-29T15:00:01;99087.22;;;11.27;55.01
55317;BME280;41178;48.956;8.130;2022-12-29T15:05:05;99111.16;;;11.75;54.39
55317;BME280;41178;48.956;8.130;2022-12-29T15:10:13;99121.09;;;10.60;55.90
55317;BME280;41178;48.956;8.130;2022-12-29T15:15:23;99127.13;;;12.29;53.39
55317;BME280;41178;48.956;8.130;2022-12-29T15:20:30;99130.13;;;11.74;53.87
55317;BME280;41178;48.956;8.130;2022-12-29T15:25:32;99154.81;;;11.22;55.05
55317;BME280;41178;48.956;8.130;2022-12-29T15:30:34;99151.56;;;11.67;53.63
55317;BME280;41178;48.956;8.130;2022-12-29T15:35:37;99167.63;;;11.94;53.18
55317;BME280;41178;48.956;8.130;2022-12-29T15:40:39;99178.16;;;11.82;53.47
55317;BME280;41178;48.956;8.130;2022-12-29T15:45:40;99197.72;;;11.83;53.32
55317;BME280;41178;48.956;8.130;2022-12-29T15:50:42;99196.50;;;12.05;52.33
55317;BME280;41178;48.956;8.130;2022-12-29T15:55:44;99217.09;;;11.58;52.58
55317;BME280;41178;48.956;8.130;2022-12-29T16:00:51;99254.91;;;10.66;55.04
55317;BME280;41178;48.956;8.130;2022-12-29T16:11:26;99235.66;;;11.93;51.99
55317;BME280;41178;48.956;8.130;2022-12-29T16:16:36;99262.75;;;10.75;52.81
55317;BME280;41178;48.956;8.130;2022-12-29T16:21:38;99259.59;;;11.88;51.88
55317;BME280;41178;48.956;8.130;2022-12-29T16:26:48;99260.03;;;11.85;52.33
55317;BME280;41178;48.956;8.130;2022-12-29T16:31:55;99294.00;;;11.02;54.09
55317;BME280;41178;48.956;8.130;2022-12-29T16:37:32;99274.66;;;12.22;51.95
55317;BME280;41178;48.956;8.130;2022-12-29T16:42:35;99280.84;;;12.09;51.60
55317;BME280;41178;48.956;8.130;2022-12-29T16:47:38;99291.66;;;10.86;54.58
55317;BME280;41178;48.956;8.130;2022-12-29T16:52:39;99257.47;;;11.43;52.94
55317;BME280;41178;48.956;8.130;2022-12-29T16:57:43;99257.81;;;11.20;52.90
55317;BME280;41178;48.956;8.130;2022-12-29T17:02:45;99287.66;;;12.05;51.27
55317;BME280;41178;48.956;8.130;2022-12-29T17:07:48;99294.22;;;11.69;51.91
55317;BME280;41178;48.956;8.130;2022-12-29T17:12:50;99306.41;;;11.17;53.84
55317;BME280;41178;48.956;8.130;2022-12-29T17:17:54;99317.38;;;12.24;51.55
55317;BME280;41178;48.956;8.130;2022-12-29T17:22:57;99301.19;;;11.57;52.28
55317;BME280;41178;48.956;8.130;2022-12-29T17:28:02;99322.91;;;11.89;52.30
55317;BME280;41178;48.956;8.130;2022-12-29T17:33:08;99345.63;;;11.31;52.51
55317;BME280;41178;48.956;8.130;2022-12-29T17:38:20;99329.31;;;11.74;52.66
55317;BME280;41178;48.956;8.130;2022-12-29T17:43:22;99323.59;;;11.36;52.15
55317;BME280;41178;48.956;8.130;2022-12-29T17:48:24;99321.44;;;11.66;52.87
55317;BME280;41178;48.956;8.130;2022-12-29T17:53:28;99340.00;;;11.81;51.70
55317;BME280;41178;48.956;8.130;2022-12-29T17:58:31;99315.66;;;11.69;51.65
55317;BME280;41178;48.956;8.130;2022-12-29T18:03:36;99323.94;;;12.01;51.43
55317;BME280;41178;48.956;8.130;2022-12-29T18:08:39;99323.13;;;11.80;52.28
55317;BME280;41178;48.956;8.130;2022-12-29T18:13:41;99319.19;;;11.76;51.78
55317;BME280;41178;48.956;8.130;2022-12-29T18:18:47;99324.38;;;11.85;51.11
55317;BME280;41178;48.956;8.130;2022-12-29T18:23:49;99328.19;;;11.62;51.72
55317;BME280;41178;48.956;8.130;2022-12-29T18:28:51;99321.63;;;10.75;52.32
55317;BME280;41178;48.956;8.130;2022-12-29T18:33:55;99337.53;;;11.18;52.82
55317;BME280;41178;48.956;8.130;2022-12-29T18:38:57;99327.34;;;10.37;53.68
55317;BME280;41178;48.956;8.130;2022-12-29T18:43:59;99362.78;;;12.18;50.64
55317;BME280;41178;48.956;8.130;2022-12-29T18:49:01;99351.22;;;11.98;51.18
55317;BME280;41178;48.956;8.130;2022-12-29T18:54:02;99330.34;;;11.25;53.81
55317;BME280;41178;48.956;8.130;2022-12-29T18:59:04;99346.28;;;9.92;56.15
55317;BME280;41178;48.956;8.130;2022-12-29T19:04:06;99330.44;;;10.68;54.35
55317;BME280;41178;48.956;8.130;2022-12-29T19:09:07;99287.03;;;9.30;55.99
55317;BME280;41178;48.956;8.130;2022-12-29T19:19:18;99272.38;;;8.60;59.07
55317;BME280;41178;48.956;8.130;2022-12-29T19:24:20;99334.06;;;9.46;57.30
55317;BME280;41178;48.956;8.130;2022-12-29T19:29:22;99339.28;;;9.54;57.43
55317;BME280;41178;48.956;8.130;2022-12-29T19:34:23;99355.34;;;9.25;57.61
55317;BME280;41178;48.956;8.130;2022-12-29T19:39:25;99340.91;;;9.19;57.72
55317;BME280;41178;48.956;8.130;2022-12-29T19:44:27;99310.63;;;8.67;59.07
55317;BME280;41178;48.956;8.130;2022-12-29T19:49:29;99328.16;;;8.99;59.22
55317;BME280;41178;48.956;8.130;2022-12-29T19:54:31;99317.31;;;9.95;57.46
55317;BME280;41178;48.956;8.130;2022-12-29T19:59:32;99351.97;;;8.86;59.17
55317;BME280;41178;48.956;8.130;2022-12-29T20:04:34;99354.78;;;8.55;60.18
55317;BME280;41178;48.956;8.130;2022-12-29T20:09:36;99358.59;;;9.05;59.40
55317;BME280;41178;48.956;8.130;2022-12-29T20:14:39;99369.91;;;9.07;59.46
55317;BME280;41178;48.956;8.130;2022-12-29T20:19:41;99338.91;;;9.57;59.23
55317;BME280;41178;48.956;8.130;2022-12-29T20:24:43;99313.75;;;9.88;58.64
55317;BME280;41178;48.956;8.130;2022-12-29T20:30:05;99389.66;;;8.83;60.15
55317;BME280;41178;48.956;8.130;2022-12-29T20:35:10;99399.50;;;8.67;60.32
55317;BME280;41178;48.956;8.130;2022-12-29T20:40:13;99365.75;;;9.34;59.37
55317;BME280;41178;48.956;8.130;2022-12-29T20:45:14;99405.72;;;9.28;59.39
55317;BME280;41178;48.956;8.130;2022-12-29T20:50:16;99380.44;;;10.40;57.34
55317;BME280;41178;48.956;8.130;2022-12-29T20:55:18;99421.41;;;8.40;60.69
55317;BME280;41178;48.956;8.130;2022-12-29T21:00:19;99373.34;;;9.67;59.29
55317;BME280;41178;48.956;8.130;2022-12-29T21:05:23;99390.00;;;9.84;58.37
55317;BME280;41178;48.956;8.130;2022-12-29T21:10:26;99415.59;;;7.90;59.95
55317;BME280;41178;48.956;8.130;2022-12-29T21:15:28;99462.56;;;10.67;55.37
55317;BME280;41178;48.956;8.130;2022-12-29T21:20:30;99500.31;;;10.94;54.65
55317;BME280;41178;48.956;8.130;2022-12-29T21:25:32;99486.28;;;10.49;55.86
55317;BME280;41178;48.956;8.130;2022-12-29T21:30:38;99565.69;;;11.91;52.55
55317;BME280;41178;48.956;8.130;2022-12-29T21:35:40;99518.34;;;9.91;56.58
55317;BME280;41178;48.956;8.130;2022-12-29T21:40:42;99533.03;;;9.12;57.59
55317;BME280;41178;48.956;8.130;2022-12-29T21:45:48;99522.41;;;9.42;56.52
55317;BME280;41178;48.956;8.130;2022-12-29T21:50:52;99514.09;;;9.67;56.02
55317;BME280;41178;48.956;8.130;2022-12-29T21:56:16;99514.16;;;10.18;56.66
55317;BME280;41178;48.956;8.130;2022-12-29T22:01:18;99557.81;;;9.21;56.81
55317;BME280;41178;48.956;8.130;2022-12-29T22:06:38;99579.66;;;11.02;54.33
55317;BME280;41178;48.956;8.130;2022-12-29T22:11:58;99607.66;;;11.49;53.23
55317;BME280;41178;48.956;8.130;2022-12-29T22:17:19;99594.84;;;10.58;54.36
55317;BME280;41178;48.956;8.130;2022-12-29T22:22:26;99595.31;;;10.62;55.11
55317;BME280;41178;48.956;8.130;2022-12-29T22:27:28;99640.91;;;11.12;53.33
55317;BME280;41178;48.956;8.130;2022-12-29T22:32:30;99642.66;;;10.46;54.08
55317;BME280;41178;48.956;8.130;2022-12-29T22:37:33;99655.66;;;11.01;53.12
55317;BME280;41178;48.956;8.130;2022-12-29T22:42:35;99671.69;;;10.49;53.44
55317;BME280;41178;48.956;8.130;2022-12-29T22:47:37;99621.44;;;8.23;58.41
55317;BME280;41178;48.956;8.130;2022-12-29T22:52:40;99664.97;;;10.39;54.20
55317;BME280;41178;48.956;8.130;2022-12-29T22:57:41;99675.91;;;9.69;56.54
55317;BME280;41178;48.956;8.130;2022-12-29T23:02:43;99683.00;;;9.39;56.37
55317;BME280;41178;48.956;8.130;2022-12-29T23:07:45;99686.78;;;11.02;53.21
55317;BME280;41178;48.956;8.130;2022-12-29T23:12:47;99696.81;;;9.43;55.52
55317;BME280;41178;48.956;8.130;2022-12-29T23:17:49;99708.06;;;11.32;52.41
55317;BME280;41178;48.956;8.130;2022-12-29T23:22:51;99696.91;;;9.72;54.71
55317;BME280;41178;48.956;8.130;2022-12-29T23:27:52;99698.25;;;10.81;52.47
55317;BME280;41178;48.956;8.130;2022-12-29T23:32:54;99717.41;;;11.36;51.25
55317;BME280;41178;48.956;8.130;2022-12-29T23:37:56;99693.44;;;10.91;51.96
55317;BME280;41178;48.956;8.130;2022-12-29T23:42:58;99733.91;;;11.83;50.25
55317;BME280;41178;48.956;8.130;2022-12-29T23:48:00;99744.53;;;12.26;49.50
55317;BME280;41178;48.956;8.130;2022-12-29T23:53:01;99702.22;;;9.95;53.54
55317;BME280;41178;48.956;8.130;2022-12-29T23:58:03;99699.91;;;11.18;51.78
